sensor_id;sensor_type;location;lat;lon;timestamp;pressure;altitude;pressure_sealevel;temperature;humidity
22688;BME280;11511;51.514;7.080;2023-04-28T18:04:24;100546.63;;;14.30;100.00
22688;BME280;11511;51.514;7.080;2023-04-28T18:06:50;100537.72;;;14.15;100.00
22688;BME280;11511;51.514;7.080;2023-04-28T18:12:22;100548.53;;;14.11;100.00
22688;BME280;11511;51.514;7.080;2023-04-28T18:14:49;100553.28;;;14.04;100.00
22688;BME280;11511;51.514;7.080;2023-04-28T18:17:14;100551.66;;;14.02;100.00
22688;BME280;11511;51.514;7.080;2023-04-28T18:19:39;100566.84;;;13.81;100.00
22688;BME280;11511;51.514;7.080;2023-04-28T18:22:06;100567.63;;;13.66;100.00
22688;BME280;11511;51.514;7.080;2023-04-28T18:24:31;100582.69;;;13.46;100.00
22688;BME280;11511;51.514;7.080;2023-04-28T18:26:57;100593.03;;;13.34;100.00
22688;BME280;11511;51.514;7.080;2023-04-28T18:29:22;100597.41;;;13.14;100.00
22688;BME280;11511;51.514;7.080;2023-04-28T18:31:48;100602.03;;;13.11;100.00
22688;BME280;11511;51.514;7.080;2023-04-28T18:34:13;100613.59;;;13.08;100.00
22688;BME280;11511;51.514;7.080;2023-04-28T18:36:38;100614.94;;;12.98;100.00
22688;BME280;11511;51.514;7.080;2023-04-28T18:39:04;100627.31;;;12.98;100.00
22688;BME280;11511;51.514;7.080;2023-04-28T18:41:30;100624.00;;;12.93;100.00
22688;BME280;11511;51.514;7.080;2023-04-28T18:43:56;100620.72;;;12.87;100.00
22688;BME280;11511;51.514;7.080;2023-04-28T18:46:25;100625.16;;;12.87;100.00
22688;BME280;11511;51.514;7.080;2023-04-28T18:48:51;100621.56;;;12.88;100.00
22688;BME280;11511;51.514;7.080;2023-04-28T18:51:17;100620.72;;;12.87;100.00
22688;BME280;11511;51.514;7.080;2023-04-28T18:53:42;100619.09;;;12.85;100.00
22688;BME280;11511;51.514;7.080;2023-04-28T18:56:07;100621.66;;;12.86;100.00
22688;BME280;11511;51.514;7.080;2023-04-28T18:58:33;100614.56;;;12.87;100.00
22688;BME280;11511;51.514;7.080;2023-04-28T19:04:23;100624.28;;;12.86;100.00
22688;BME280;11511;51.514;7.080;2023-04-28T19:10:11;100628.56;;;12.89;100.00
22688;BME280;11511;51.514;7.080;2023-04-28T19:12:36;100621.56;;;12.88;100.00
22688;BME280;11511;51.514;7.080;2023-04-28T19:15:02;100629.50;;;12.88;100.00
22688;BME280;11511;51.514;7.080;2023-04-28T19:17:29;100633.78;;;12.91;100.00
22688;BME280;11511;51.514;7.080;2023-04-28T19:19:55;100635.50;;;12.92;100.00
22688;BME280;11511;51.514;7.080;2023-04-28T19:22:37;100627.44;;;12.95;100.00
22688;BME280;11511;51.514;7.080;2023-04-28T19:25:05;100639.75;;;12.96;100.00
22688;BME280;11511;51.514;7.080;2023-04-28T19:27:33;100641.72;;;12.91;100.00
22688;BME280;11511;51.514;7.080;2023-04-28T19:29:59;100636.56;;;12.87;100.00
22688;BME280;11511;51.514;7.080;2023-04-28T19:32:25;100654.31;;;12.85;100.00
22688;BME280;11511;51.514;7.080;2023-04-28T19:34:50;100658.97;;;12.80;100.00
22688;BME280;11511;51.514;7.080;2023-04-28T19:37:17;100648.78;;;12.71;100.00
22688;BME280;11511;51.514;7.080;2023-04-28T19:39:42;100660.59;;;12.63;100.00
22688;BME280;11511;51.514;7.080;2023-04-28T19:42:08;100658.47;;;12.52;100.00
22688;BME280;11511;51.514;7.080;2023-04-28T19:44:34;100659.66;;;12.45;100.00
22688;BME280;11511;51.514;7.080;2023-04-28T19:47:03;100663.22;;;12.44;100.00
22688;BME280;11511;51.514;7.080;2023-04-28T19:49:30;100667.69;;;12.42;100.00
22688;BME280;11511;51.514;7.080;2023-04-28T19:51:57;100665.91;;;12.42;100.00
22688;BME280;11511;51.514;7.080;2023-04-28T19:54:23;100670.34;;;12.42;100.00
22688;BME280;11511;51.514;7.080;2023-04-28T19:56:48;100674.56;;;12.46;100.00
22688;BME280;11511;51.514;7.080;2023-04-28T19:59:14;100669.94;;;12.51;100.00
22688;BME280;11511;51.514;7.080;2023-04-28T20:01:40;100674.44;;;12.49;100.00
22688;BME280;11511;51.514;7.080;2023-04-28T20:04:07;100668.22;;;12.50;100.00
22688;BME280;11511;51.514;7.080;2023-04-28T20:06:33;100672.53;;;12.52;100.00
22688;BME280;11511;51.514;7.080;2023-04-28T20:08:59;100676.09;;;12.51;100.00
22688;BME280;11511;51.514;7.080;2023-04-28T20:11:24;100672.59;;;12.51;100.00
22688;BME280;11511;51.514;7.080;2023-04-28T20:13:50;100679.47;;;12.55;100.00
22688;BME280;11511;51.514;7.080;2023-04-28T20:16:16;100675.16;;;12.52;100.00
22688;BME280;11511;51.514;7.080;2023-04-28T20:18:44;100674.38;;;12.50;100.00
22688;BME280;11511;51.514;7.080;2023-04-28T20:21:09;100676.16;;;12.50;100.00
22688;BME280;11511;51.514;7.080;2023-04-28T20:23:35;100671.72;;;12.50;100.00
22688;BME280;11511;51.514;7.080;2023-04-28T20:26:01;100671.25;;;12.61;100.00
22688;BME280;11511;51.514;7.080;2023-04-28T20:28:26;100678.25;;;12.62;100.00
22688;BME280;11511;51.514;7.080;2023-04-28T20:30:52;100671.13;;;12.64;100.00
22688;BME280;11511;51.514;7.080;2023-04-28T20:33:17;100673.88;;;12.61;100.00
22688;BME280;11511;51.514;7.080;2023-04-28T20:35:43;100668.78;;;12.58;100.00
22688;BME280;11511;51.514;7.080;2023-04-28T20:38:08;100676.03;;;12.53;100.00
22688;BME280;11511;51.514;7.080;2023-04-28T20:40:33;100677.09;;;12.49;100.00
22688;BME280;11511;51.514;7.080;2023-04-28T20:43:01;100678.13;;;12.45;100.00
22688;BME280;11511;51.514;7.080;2023-04-28T20:45:31;100683.69;;;12.39;100.00
22688;BME280;11511;51.514;7.080;2023-04-28T20:47:56;100683.00;;;12.34;100.00
22688;BME280;11511;51.514;7.080;2023-04-28T20:50:23;100693.56;;;12.34;100.00
22688;BME280;11511;51.514;7.080;2023-04-28T20:52:48;100706.13;;;12.29;100.00
22688;BME280;11511;51.514;7.080;2023-04-28T20:55:14;100696.63;;;12.25;100.00
22688;BME280;11511;51.514;7.080;2023-04-28T20:57:39;100703.94;;;12.18;100.00
22688;BME280;11511;51.514;7.080;2023-04-28T21:00:05;100705.91;;;12.13;100.00
22688;BME280;11511;51.514;7.080;2023-04-28T21:02:31;100697.97;;;12.13;100.00
22688;BME280;11511;51.514;7.080;2023-04-28T21:04:56;100702.59;;;12.08;100.00
22688;BME280;11511;51.514;7.080;2023-04-28T21:07:22;100703.31;;;12.11;100.00
22688;BME280;11511;51.514;7.080;2023-04-28T21:09:47;100704.31;;;12.09;100.00
22688;BME280;11511;51.514;7.080;2023-04-28T21:12:13;100704.25;;;12.10;100.00
22688;BME280;11511;51.514;7.080;2023-04-28T21:14:38;100708.78;;;12.07;100.00
22688;BME280;11511;51.514;7.080;2023-04-28T21:17:05;100708.78;;;12.07;100.00
22688;BME280;11511;51.514;7.080;2023-04-28T21:19:31;100718.44;;;12.08;100.00
22688;BME280;11511;51.514;7.080;2023-04-28T21:21:57;100721.13;;;12.06;100.00
22688;BME280;11511;51.514;7.080;2023-04-28T21:24:22;100722.78;;;12.09;100.00
22688;BME280;11511;51.514;7.080;2023-04-28T21:26:48;100732.53;;;12.07;100.00
22688;BME280;11511;51.514;7.080;2023-04-28T21:29:13;100738.69;;;12.07;100.00
22688;BME280;11511;51.514;7.080;2023-04-28T21:31:40;100733.34;;;12.09;100.00
22688;BME280;11511;51.514;7.080;2023-04-28T21:34:06;100723.72;;;12.08;100.00
22688;BME280;11511;51.514;7.080;2023-04-28T21:36:32;100736.09;;;12.06;100.00
22688;BME280;11511;51.514;7.080;2023-04-28T21:38:58;100728.13;;;12.07;100.00
22688;BME280;11511;51.514;7.080;2023-04-28T21:41:24;100736.03;;;12.07;100.00
22688;BME280;11511;51.514;7.080;2023-04-28T21:43:50;100729.03;;;12.06;100.00
22688;BME280;11511;51.514;7.080;2023-04-28T21:46:15;100733.47;;;12.06;100.00
22688;BME280;11511;51.514;7.080;2023-04-28T21:48:43;100729.03;;;12.06;100.00
22688;BME280;11511;51.514;7.080;2023-04-28T21:51:08;100730.81;;;12.06;100.00
22688;BME280;11511;51.514;7.080;2023-04-28T21:53:33;100731.84;;;12.03;100.00
22688;BME280;11511;51.514;7.080;2023-04-28T21:55:59;100733.53;;;12.04;100.00
22688;BME280;11511;51.514;7.080;2023-04-28T21:58:24;100741.53;;;12.03;100.00
22688;BME280;11511;51.514;7.080;2023-04-28T22:00:51;100741.72;;;11.98;100.00
22688;BME280;11511;51.514;7.080;2023-04-28T22:03:16;100743.44;;;11.99;100.00
22688;BME280;11511;51.514;7.080;2023-04-28T22:05:43;100741.16;;;11.90;100.00
22688;BME280;11511;51.514;7.080;2023-04-28T22:08:08;100749.13;;;11.89;100.00
22688;BME280;11511;51.514;7.080;2023-04-28T22:10:34;100749.88;;;11.92;100.00
22688;BME280;11511;51.514;7.080;2023-04-28T22:13:00;100741.28;;;11.87;100.00
22688;BME280;11511;51.514;7.080;2023-04-28T22:15:26;100752.13;;;11.79;100.00
22688;BME280;11511;51.514;7.080;2023-04-28T22:17:51;100753.97;;;11.77;100.00
22688;BME280;11511;51.514;7.080;2023-04-28T22:20:16;100759.25;;;11.77;100.00
22688;BME280;11511;51.514;7.080;2023-04-28T22:22:42;100755.00;;;11.73;100.00
22688;BME280;11511;51.514;7.080;2023-04-28T22:25:07;100756.84;;;11.71;100.00
22688;BME280;11511;51.514;7.080;2023-04-28T22:27:33;100754.72;;;11.58;100.00
22688;BME280;11511;51.514;7.080;2023-04-28T22:29:58;100752.03;;;11.59;100.00
22688;BME280;11511;51.514;7.080;2023-04-28T22:32:25;100758.50;;;11.50;100.00
22688;BME280;11511;51.514;7.080;2023-04-28T22:34:50;100758.38;;;11.53;100.00
22688;BME280;11511;51.514;7.080;2023-04-28T22:37:15;100757.03;;;11.43;100.00
22688;BME280;11511;51.514;7.080;2023-04-28T22:39:41;100755.66;;;11.33;100.00
22688;BME280;11511;51.514;7.080;2023-04-28T22:42:06;100761.84;;;11.32;100.00
22688;BME280;11511;51.514;7.080;2023-04-28T22:44:32;100761.03;;;11.30;100.00
22688;BME280;11511;51.514;7.080;2023-04-28T22:46:57;100765.56;;;11.27;100.00
22688;BME280;11511;51.514;7.080;2023-04-28T22:49:23;100762.22;;;11.22;100.00
22688;BME280;11511;51.514;7.080;2023-04-28T22:51:52;100764.03;;;11.21;100.00
22688;BME280;11511;51.514;7.080;2023-04-28T22:54:18;100756.16;;;11.19;100.00
22688;BME280;11511;51.514;7.080;2023-04-28T22:56:43;100758.06;;;11.16;100.00
22688;BME280;11511;51.514;7.080;2023-04-28T22:59:09;100765.09;;;11.15;100.00
22688;BME280;11511;51.514;7.080;2023-04-28T23:01:34;100766.94;;;11.13;100.00
22688;BME280;11511;51.514;7.080;2023-04-28T23:04:00;100767.75;;;11.15;100.00
22688;BME280;11511;51.514;7.080;2023-04-28T23:06:27;100760.84;;;11.11;100.00
22688;BME280;11511;51.514;7.080;2023-04-28T23:08:53;100754.72;;;11.11;100.00
22688;BME280;11511;51.514;7.080;2023-04-28T23:11:19;100759.19;;;11.09;100.00
22688;BME280;11511;51.514;7.080;2023-04-28T23:13:44;100754.06;;;11.04;100.00
22688;BME280;11511;51.514;7.080;2023-04-28T23:16:10;100754.28;;;10.98;100.00
22688;BME280;11511;51.514;7.080;2023-04-28T23:18:35;100741.88;;;11.02;100.00
22688;BME280;11511;51.514;7.080;2023-04-28T23:21:01;100749.06;;;10.97;100.00
22688;BME280;11511;51.514;7.080;2023-04-28T23:23:26;100739.44;;;10.96;100.00
22688;BME280;11511;51.514;7.080;2023-04-28T23:25:51;100748.25;;;10.95;100.00
22688;BME280;11511;51.514;7.080;2023-04-28T23:28:17;100751.09;;;10.90;100.00
22688;BME280;11511;51.514;7.080;2023-04-28T23:30:43;100747.50;;;10.93;100.00
22688;BME280;11511;51.514;7.080;2023-04-28T23:33:08;100737.88;;;10.92;100.00
22688;BME280;11511;51.514;7.080;2023-04-28T23:35:35;100748.41;;;10.92;100.00
22688;BME280;11511;51.514;7.080;2023-04-28T23:38:01;100742.31;;;10.90;100.00
22688;BME280;11511;51.514;7.080;2023-04-28T23:40:26;100747.59;;;10.90;100.00
22688;BME280;11511;51.514;7.080;2023-04-28T23:42:51;100748.56;;;10.87;100.00
22688;BME280;11511;51.514;7.080;2023-04-28T23:45:17;100753.06;;;10.83;100.00
22688;BME280;11511;51.514;7.080;2023-04-28T23:47:42;100756.69;;;10.81;100.00
22688;BME280;11511;51.514;7.080;2023-04-28T23:50:08;100756.63;;;10.82;100.00
22688;BME280;11511;51.514;7.080;2023-04-28T23:52:34;100761.84;;;10.84;100.00
22688;BME280;11511;51.514;7.080;2023-04-28T23:55:00;100756.72;;;10.79;100.00
22688;BME280;11511;51.514;7.080;2023-04-28T23:57:26;100763.00;;;10.75;100.00
22688;BME280;11511;51.514;7.080;2023-04-28T23:59:51;100762.19;;;10.73;100.00
